createdAt,value
2023-05-16T00:00:15.985Z,10.83
2023-05-16T00:03:03.409Z,10.83
2023-05-16T00:05:33.994Z,10.82
2023-05-16T00:08:01.027Z,10.82
2023-05-16T00:10:30.505Z,10.81
2023-05-16T00:12:57.691Z,10.81
2023-05-16T00:15:27.634Z,10.82
2023-05-16T00:18:06.416Z,10.82
2023-05-16T00:20:43.816Z,10.82
2023-05-16T00:23:10.838Z,10.82
2023-05-16T00:25:37.732Z,10.83
2023-05-16T00:28:04.956Z,10.83
2023-05-16T00:30:32.111Z,10.85
2023-05-16T00:32:59.226Z,10.84
2023-05-16T00:35:27.127Z,10.84
2023-05-16T00:37:54.489Z,10.84
2023-05-16T00:40:22.388Z,10.84
2023-05-16T00:42:49.398Z,10.83
2023-05-16T00:45:16.453Z,10.83
2023-05-16T00:47:46.392Z,10.83
2023-05-16T00:50:14.383Z,10.83
2023-05-16T00:52:41.962Z,10.83
2023-05-16T00:55:11.353Z,10.82
2023-05-16T00:57:38.714Z,10.83
2023-05-16T01:00:08.503Z,10.84
2023-05-16T01:02:37.933Z,10.85
2023-05-16T01:05:07.514Z,10.86
2023-05-16T01:07:34.456Z,10.86
2023-05-16T01:10:01.715Z,10.87
2023-05-16T01:12:38.203Z,10.88
2023-05-16T01:15:10.412Z,10.89
2023-05-16T01:17:45.741Z,10.92
2023-05-16T01:20:22.692Z,10.93
2023-05-16T01:23:05.721Z,10.94
2023-05-16T01:25:47.275Z,10.94
2023-05-16T01:28:17.314Z,10.96
2023-05-16T01:30:44.916Z,10.97
2023-05-16T01:33:12.576Z,10.98
2023-05-16T01:35:48.786Z,10.99
2023-05-16T01:38:24.797Z,11.01
2023-05-16T01:40:57.298Z,11.02
2023-05-16T01:43:31.914Z,11.05
2023-05-16T01:46:10.654Z,11.07
2023-05-16T01:48:45.860Z,11.07
2023-05-16T01:51:15.265Z,11.07
2023-05-16T01:53:45.509Z,11.06
2023-05-16T01:56:17.016Z,11.06
2023-05-16T01:58:47.252Z,11.05
2023-05-16T02:01:17.320Z,11.04
2023-05-16T02:03:44.275Z,11.04
2023-05-16T02:06:12.119Z,11.04
2023-05-16T02:08:39.343Z,11.04
2023-05-16T02:11:06.187Z,11.06
2023-05-16T02:13:33.043Z,11.07
2023-05-16T02:16:04.375Z,11.07
2023-05-16T02:18:32.109Z,11.07
2023-05-16T02:21:02.923Z,11.08
2023-05-16T02:23:30.124Z,11.08
2023-05-16T02:25:57.042Z,11.08
2023-05-16T02:28:24.019Z,11.08
2023-05-16T02:31:00.156Z,11.08
2023-05-16T02:33:28.260Z,11.07
2023-05-16T02:35:56.135Z,11.04
2023-05-16T02:38:26.399Z,11.03
2023-05-16T02:40:56.253Z,11.02
2023-05-16T02:43:23.103Z,11.02
2023-05-16T02:45:50.292Z,11.02
2023-05-16T02:48:17.630Z,11.00
2023-05-16T02:50:44.468Z,10.97
2023-05-16T02:53:11.869Z,10.93
2023-05-16T02:55:39.009Z,10.87
2023-05-16T02:58:06.175Z,10.82
2023-05-16T03:00:33.142Z,10.78
2023-05-16T03:03:00.636Z,10.75
2023-05-16T03:05:28.924Z,10.73
2023-05-16T03:07:56.438Z,10.70
2023-05-16T03:10:24.128Z,10.68
2023-05-16T03:12:51.046Z,10.67
2023-05-16T03:15:18.258Z,10.64
2023-05-16T03:17:45.580Z,10.63
2023-05-16T03:20:14.390Z,10.61
2023-05-16T03:22:41.555Z,10.59
2023-05-16T03:25:12.019Z,10.58
2023-05-16T03:27:41.014Z,10.62
2023-05-16T03:30:10.142Z,10.66
2023-05-16T03:32:37.155Z,10.69
2023-05-16T03:35:04.424Z,10.73
2023-05-16T03:37:31.992Z,10.76
2023-05-16T03:39:58.916Z,10.77
2023-05-16T03:42:25.939Z,10.76
2023-05-16T03:44:52.804Z,10.77
2023-05-16T03:47:20.171Z,10.77
2023-05-16T03:49:47.057Z,10.75
2023-05-16T03:52:16.614Z,10.76
2023-05-16T03:54:43.660Z,10.78
2023-05-16T03:57:10.608Z,10.79
2023-05-16T03:59:39.136Z,10.81
2023-05-16T04:02:06.972Z,10.83
2023-05-16T04:04:34.100Z,10.85
2023-05-16T04:07:01.723Z,10.88
2023-05-16T04:09:29.267Z,10.92
2023-05-16T04:11:56.815Z,10.94
2023-05-16T04:14:24.356Z,10.97
2023-05-16T04:16:51.927Z,10.99
2023-05-16T04:19:19.644Z,11.02
2023-05-16T04:21:46.890Z,11.07
2023-05-16T04:24:13.855Z,11.13
2023-05-16T04:26:40.811Z,11.17
2023-05-16T04:29:08.270Z,11.22
2023-05-16T04:31:35.424Z,11.28
2023-05-16T04:34:02.627Z,11.36
2023-05-16T04:36:31.772Z,11.41
2023-05-16T04:38:58.916Z,11.47
2023-05-16T04:41:26.333Z,11.54
2023-05-16T04:43:53.742Z,11.63
2023-05-16T04:46:24.705Z,11.73
2023-05-16T04:48:52.255Z,11.81
2023-05-16T04:51:19.291Z,11.93
2023-05-16T04:53:46.340Z,12.09
2023-05-16T04:56:13.196Z,12.23
2023-05-16T04:58:43.052Z,12.39
2023-05-16T05:01:11.300Z,12.56
2023-05-16T05:03:38.363Z,12.70
2023-05-16T05:06:05.586Z,12.84
2023-05-16T05:08:32.912Z,13.01
2023-05-16T05:11:00.183Z,13.18
2023-05-16T05:13:27.040Z,13.37
2023-05-16T05:15:54.088Z,13.58
2023-05-16T05:18:21.054Z,13.88
2023-05-16T05:20:48.765Z,14.67
2023-05-16T05:23:15.918Z,16.05
2023-05-16T05:25:42.861Z,17.14
2023-05-16T05:28:09.992Z,18.37
2023-05-16T05:30:37.067Z,19.53
2023-05-16T05:33:04.142Z,19.66
2023-05-16T05:35:31.176Z,20.05
2023-05-16T05:37:58.331Z,20.45
2023-05-16T05:40:25.261Z,20.13
2023-05-16T05:42:52.093Z,19.79
2023-05-16T05:45:19.550Z,19.18
2023-05-16T05:47:46.666Z,18.46
2023-05-16T05:50:14.787Z,17.81
2023-05-16T05:52:42.459Z,17.36
2023-05-16T05:55:10.218Z,16.88
2023-05-16T05:57:37.077Z,16.41
2023-05-16T06:00:05.301Z,16.04
2023-05-16T06:02:34.831Z,15.82
2023-05-16T06:05:02.405Z,15.71
2023-05-16T06:07:29.633Z,15.47
2023-05-16T06:09:56.579Z,15.19
2023-05-16T06:12:23.655Z,14.93
2023-05-16T06:14:50.811Z,14.64
2023-05-16T06:17:18.239Z,14.37
2023-05-16T06:19:45.348Z,14.20
2023-05-16T06:22:12.517Z,14.04
2023-05-16T06:24:39.589Z,13.88
2023-05-16T06:27:07.405Z,13.72
2023-05-16T06:29:34.506Z,13.57
2023-05-16T06:32:01.518Z,13.47
2023-05-16T06:34:28.649Z,13.40
2023-05-16T06:36:55.977Z,13.36
2023-05-16T06:39:23.004Z,13.28
2023-05-16T06:41:50.006Z,13.24
2023-05-16T06:44:17.452Z,13.22
2023-05-16T06:46:44.451Z,13.22
2023-05-16T06:49:11.424Z,13.25
2023-05-16T06:51:38.913Z,13.32
2023-05-16T06:54:05.917Z,13.34
2023-05-16T06:56:33.626Z,13.34
2023-05-16T06:59:01.985Z,13.32
2023-05-16T07:01:29.088Z,13.31
2023-05-16T07:03:56.416Z,13.28
2023-05-16T07:06:23.581Z,13.28
2023-05-16T07:08:53.733Z,13.29
2023-05-16T07:11:21.509Z,13.27
2023-05-16T07:13:48.737Z,13.26
2023-05-16T07:16:18.552Z,13.27
2023-05-16T07:18:45.700Z,13.31
2023-05-16T07:21:12.766Z,13.37
2023-05-16T07:23:39.957Z,13.45
2023-05-16T07:26:07.050Z,13.57
2023-05-16T07:28:33.941Z,14.59
2023-05-16T07:31:01.179Z,16.63
2023-05-16T07:33:30.362Z,18.70
2023-05-16T07:36:07.737Z,20.49
2023-05-16T07:38:42.124Z,21.56
2023-05-16T07:41:09.316Z,21.92
2023-05-16T07:43:36.958Z,21.57
2023-05-16T07:46:04.015Z,21.09
2023-05-16T07:48:31.174Z,20.62
2023-05-16T07:50:58.007Z,20.11
2023-05-16T07:53:25.269Z,19.39
2023-05-16T07:55:52.638Z,18.67
2023-05-16T07:58:19.891Z,18.08
2023-05-16T08:00:46.869Z,17.57
2023-05-16T08:03:14.013Z,17.07
2023-05-16T08:05:40.967Z,16.64
2023-05-16T08:08:08.518Z,16.30
2023-05-16T08:10:35.781Z,16.07
2023-05-16T08:13:02.983Z,15.93
2023-05-16T08:15:32.119Z,15.81
2023-05-16T08:18:00.347Z,15.71
2023-05-16T08:20:27.803Z,15.59
2023-05-16T08:22:55.100Z,15.49
2023-05-16T08:25:22.744Z,15.48
2023-05-16T08:27:50.800Z,15.55
2023-05-16T08:30:18.220Z,15.70
2023-05-16T08:32:45.499Z,15.86
2023-05-16T08:35:13.258Z,15.95
2023-05-16T08:37:40.263Z,16.02
2023-05-16T08:40:10.855Z,16.29
2023-05-16T08:42:38.638Z,17.03
2023-05-16T08:45:06.720Z,17.57
2023-05-16T08:47:36.791Z,18.25
2023-05-16T08:50:05.880Z,18.99
2023-05-16T08:52:34.617Z,19.68
2023-05-16T08:55:10.155Z,20.76
2023-05-16T08:57:36.945Z,21.44
2023-05-16T09:00:11.892Z,21.57
2023-05-16T09:02:40.611Z,21.29
2023-05-16T09:05:09.794Z,20.87
2023-05-16T09:07:36.664Z,20.55
2023-05-16T09:10:03.992Z,20.43
2023-05-16T09:12:31.291Z,20.34
2023-05-16T09:14:59.246Z,20.17
2023-05-16T09:17:38.790Z,20.18
2023-05-16T09:20:18.429Z,20.09
2023-05-16T09:22:55.167Z,20.01
2023-05-16T09:25:30.200Z,20.11
2023-05-16T09:28:00.213Z,20.90
2023-05-16T09:30:31.819Z,21.41
2023-05-16T09:32:59.352Z,21.41
2023-05-16T09:37:57.120Z,20.67
2023-05-16T09:40:25.444Z,20.37
2023-05-16T09:43:05.735Z,20.22
2023-05-16T09:45:34.329Z,20.02
2023-05-16T09:48:05.552Z,19.88
2023-05-16T09:50:33.529Z,19.72
2023-05-16T09:53:01.030Z,19.54
2023-05-16T09:55:28.262Z,19.33
2023-05-16T09:57:55.355Z,19.14
2023-05-16T10:00:23.221Z,18.91
2023-05-16T10:02:50.766Z,18.76
2023-05-16T10:05:18.748Z,18.63
2023-05-16T10:07:47.190Z,18.42
2023-05-16T10:10:17.262Z,18.16
2023-05-16T10:12:46.100Z,17.97
2023-05-16T10:15:13.364Z,17.78
2023-05-16T10:17:43.619Z,17.58
2023-05-16T10:20:13.917Z,17.41
2023-05-16T10:22:44.999Z,17.28
2023-05-16T10:25:19.161Z,17.13
2023-05-16T10:27:47.707Z,17.06
2023-05-16T10:30:17.461Z,17.03
2023-05-16T10:32:45.445Z,16.90
2023-05-16T10:35:13.644Z,16.82
2023-05-16T10:37:41.678Z,16.76
2023-05-16T10:40:11.774Z,16.70
2023-05-16T10:42:38.932Z,16.76
2023-05-16T10:45:21.583Z,16.84
2023-05-16T10:47:56.760Z,16.96
2023-05-16T10:50:35.998Z,17.06
2023-05-16T10:53:19.919Z,17.10
2023-05-16T10:56:06.013Z,17.23
2023-05-16T10:58:46.383Z,17.30
2023-05-16T11:01:24.528Z,17.32
2023-05-16T11:04:20.441Z,17.35
2023-05-16T11:06:59.096Z,17.52
2023-05-16T11:09:29.524Z,17.68
2023-05-16T11:12:04.018Z,17.78
2023-05-16T11:14:39.093Z,17.86
2023-05-16T11:17:10.247Z,17.90
2023-05-16T11:19:41.266Z,17.92
2023-05-16T11:22:25.112Z,17.90
2023-05-16T11:24:58.264Z,17.84
2023-05-16T11:27:28.141Z,17.72
2023-05-16T11:29:56.892Z,17.69
2023-05-16T11:32:25.193Z,17.74
2023-05-16T11:34:53.297Z,17.99
2023-05-16T11:37:21.820Z,18.29
2023-05-16T11:39:49.025Z,18.60
2023-05-16T11:42:18.112Z,18.70
2023-05-16T11:44:44.973Z,18.80
2023-05-16T11:47:12.461Z,18.92
2023-05-16T11:49:39.773Z,18.96
2023-05-16T11:52:09.675Z,19.05
2023-05-16T11:54:37.571Z,19.22
2023-05-16T11:57:05.287Z,19.48
2023-05-16T11:59:32.418Z,19.69
2023-05-16T12:01:59.540Z,19.82
2023-05-16T12:04:26.840Z,19.95
2023-05-16T12:07:02.972Z,20.03
2023-05-16T12:09:30.503Z,20.12
2023-05-16T12:11:57.493Z,20.28
2023-05-16T12:14:26.230Z,20.48
2023-05-16T12:16:55.147Z,20.57
2023-05-16T12:19:23.094Z,20.58
2023-05-16T12:21:53.290Z,20.54
2023-05-16T12:24:20.843Z,20.57
2023-05-16T12:26:47.681Z,20.54
2023-05-16T12:29:14.739Z,20.42
2023-05-16T12:31:42.515Z,20.27
2023-05-16T12:34:18.088Z,20.08
2023-05-16T12:36:45.625Z,19.86
2023-05-16T12:39:16.176Z,19.67
2023-05-16T12:41:44.324Z,19.55
2023-05-16T12:44:14.560Z,19.42
2023-05-16T12:46:45.843Z,19.42
2023-05-16T12:49:13.461Z,19.46
2023-05-16T12:51:40.440Z,19.53
2023-05-16T12:54:14.997Z,19.65
2023-05-16T12:56:43.871Z,19.83
2023-05-16T12:59:12.317Z,20.01
2023-05-16T13:01:41.278Z,20.14
2023-05-16T13:04:09.710Z,20.23
2023-05-16T13:06:56.454Z,20.29
2023-05-16T13:09:29.953Z,20.32
2023-05-16T13:11:59.790Z,20.31
2023-05-16T13:14:27.071Z,20.34
2023-05-16T13:16:53.898Z,20.31
2023-05-16T13:19:22.695Z,20.32
2023-05-16T13:21:49.876Z,20.46
2023-05-16T13:24:17.143Z,20.60
2023-05-16T13:26:44.157Z,20.70
2023-05-16T13:29:12.146Z,20.78
2023-05-16T13:31:39.072Z,20.83
2023-05-16T13:34:07.022Z,20.77
2023-05-16T13:36:49.362Z,20.73
2023-05-16T13:39:20.406Z,20.79
2023-05-16T13:41:49.186Z,20.87
2023-05-16T13:44:16.498Z,20.93
2023-05-16T13:46:43.397Z,21.00
2023-05-16T13:49:11.014Z,21.06
2023-05-16T13:51:37.876Z,21.06
2023-05-16T13:54:04.918Z,21.04
2023-05-16T13:56:32.160Z,21.14
2023-05-16T13:59:03.905Z,21.18
2023-05-16T14:01:33.472Z,21.09
2023-05-16T14:04:00.577Z,20.96
2023-05-16T14:06:27.620Z,21.00
2023-05-16T14:08:55.214Z,21.09
2023-05-16T14:11:28.782Z,21.08
2023-05-16T14:13:57.340Z,20.90
2023-05-16T14:16:24.317Z,20.74
2023-05-16T14:18:51.485Z,20.62
2023-05-16T14:21:19.805Z,20.55
2023-05-16T14:23:46.807Z,20.57
2023-05-16T14:26:14.185Z,20.63
2023-05-16T14:28:41.544Z,20.68
2023-05-16T14:31:08.531Z,20.74
2023-05-16T14:33:35.411Z,20.72
2023-05-16T14:36:02.627Z,20.71
2023-05-16T14:38:29.583Z,20.73
2023-05-16T14:40:56.460Z,20.78
2023-05-16T14:43:23.484Z,20.86
2023-05-16T14:45:50.466Z,20.90
2023-05-16T14:48:17.739Z,20.91
2023-05-16T14:50:44.728Z,20.92
2023-05-16T14:53:11.869Z,20.91
2023-05-16T14:55:38.828Z,20.87
2023-05-16T14:58:06.206Z,20.81
2023-05-16T15:00:33.250Z,20.68
2023-05-16T15:03:00.564Z,20.62
2023-05-16T15:05:29.425Z,20.57
2023-05-16T15:07:56.838Z,20.58
2023-05-16T15:10:27.414Z,20.58
2023-05-16T15:12:54.609Z,20.55
2023-05-16T15:15:21.878Z,20.52
2023-05-16T15:17:48.838Z,20.52
2023-05-16T15:20:16.556Z,20.51
2023-05-16T15:22:43.481Z,20.45
2023-05-16T15:25:12.101Z,20.41
2023-05-16T15:27:40.226Z,20.40
2023-05-16T15:30:08.865Z,20.37
2023-05-16T15:32:35.951Z,20.34
2023-05-16T15:35:04.047Z,20.32
2023-05-16T15:37:31.468Z,20.28
2023-05-16T15:39:58.416Z,20.22
2023-05-16T15:42:25.485Z,20.20
2023-05-16T15:44:52.874Z,20.18
2023-05-16T15:47:20.077Z,20.14
2023-05-16T15:49:47.310Z,20.10
2023-05-16T15:52:14.608Z,20.10
2023-05-16T15:54:42.723Z,20.09
2023-05-16T15:57:09.704Z,20.07
2023-05-16T15:59:36.650Z,20.03
2023-05-16T16:02:05.537Z,19.98
2023-05-16T16:04:33.209Z,19.92
2023-05-16T16:07:00.146Z,19.89
2023-05-16T16:09:27.157Z,19.84
2023-05-16T16:11:56.493Z,19.80
2023-05-16T16:14:23.442Z,19.79
2023-05-16T16:16:50.633Z,19.77
2023-05-16T16:19:18.011Z,19.74
2023-05-16T16:21:45.088Z,19.71
2023-05-16T16:24:11.995Z,19.66
2023-05-16T16:26:39.096Z,19.60
2023-05-16T16:29:06.690Z,19.55
2023-05-16T16:31:33.765Z,19.47
2023-05-16T16:34:01.079Z,19.39
2023-05-16T16:36:27.990Z,19.34
2023-05-16T16:38:54.880Z,19.28
2023-05-16T16:41:21.882Z,19.23
2023-05-16T16:43:48.874Z,19.18
2023-05-16T16:46:15.931Z,19.14
2023-05-16T16:48:45.656Z,19.09
2023-05-16T16:51:12.529Z,19.04
2023-05-16T16:53:39.631Z,19.02
2023-05-16T16:56:07.825Z,18.99
2023-05-16T16:58:34.780Z,18.98
2023-05-16T17:01:01.922Z,18.96
2023-05-16T17:03:29.206Z,18.90
2023-05-16T17:05:58.855Z,18.85
2023-05-16T17:08:25.750Z,18.81
2023-05-16T17:10:53.052Z,18.80
2023-05-16T17:13:20.464Z,18.78
2023-05-16T17:15:48.235Z,18.74
2023-05-16T17:18:15.618Z,18.71
2023-05-16T17:20:42.572Z,18.67
2023-05-16T17:23:09.522Z,18.63
2023-05-16T17:25:36.620Z,18.58
2023-05-16T17:28:04.034Z,18.52
2023-05-16T17:30:31.196Z,18.47
2023-05-16T17:32:58.526Z,18.41
2023-05-16T17:35:25.756Z,18.37
2023-05-16T17:37:53.016Z,18.32
2023-05-16T17:40:20.788Z,18.24
2023-05-16T17:42:48.167Z,18.17
2023-05-16T17:45:17.210Z,18.08
2023-05-16T17:47:44.529Z,18.02
2023-05-16T17:50:12.810Z,17.97
2023-05-16T17:52:40.651Z,17.92
2023-05-16T17:55:09.980Z,17.88
2023-05-16T17:57:36.979Z,17.83
2023-05-16T18:00:05.826Z,17.78
2023-05-16T18:02:36.051Z,17.74
2023-05-16T18:05:06.823Z,17.70
2023-05-16T18:07:34.159Z,17.66
2023-05-16T18:10:01.044Z,17.62
2023-05-16T18:12:28.171Z,17.58
2023-05-16T18:14:55.036Z,17.52
2023-05-16T18:17:22.017Z,17.46
2023-05-16T18:19:49.227Z,17.43
2023-05-16T18:22:16.294Z,17.39
2023-05-16T18:24:46.599Z,17.36
2023-05-16T18:27:13.818Z,17.32
2023-05-16T18:29:40.681Z,17.29
2023-05-16T18:32:08.940Z,17.26
2023-05-16T18:34:35.947Z,17.21
2023-05-16T18:37:02.928Z,17.17
2023-05-16T18:39:29.846Z,17.14
2023-05-16T18:41:56.909Z,17.11
2023-05-16T18:44:23.859Z,17.10
2023-05-16T18:46:50.743Z,17.08
2023-05-16T18:49:17.705Z,17.05
2023-05-16T18:51:44.732Z,17.03
2023-05-16T18:54:11.667Z,17.01
2023-05-16T18:56:38.665Z,16.99
2023-05-16T18:59:06.790Z,16.97
2023-05-16T19:01:33.920Z,16.95
2023-05-16T19:04:01.004Z,16.92
2023-05-16T19:06:28.106Z,16.88
2023-05-16T19:08:55.074Z,16.84
2023-05-16T19:11:22.846Z,16.80
2023-05-16T19:13:49.750Z,16.79
2023-05-16T19:16:16.966Z,16.77
2023-05-16T19:18:44.521Z,16.73
2023-05-16T19:21:13.588Z,16.71
2023-05-16T19:23:40.767Z,16.69
2023-05-16T19:26:07.873Z,16.67
2023-05-16T19:28:34.939Z,16.65
2023-05-16T19:31:01.954Z,16.62
2023-05-16T19:33:29.124Z,16.60
2023-05-16T19:35:58.593Z,16.59
2023-05-16T19:38:26.187Z,16.58
2023-05-16T19:40:53.998Z,16.56
2023-05-16T19:43:21.163Z,16.56
2023-05-16T19:45:47.994Z,16.56
2023-05-16T19:48:15.268Z,16.55
2023-05-16T19:50:42.751Z,16.54
2023-05-16T19:53:09.977Z,16.53
2023-05-16T19:55:38.734Z,16.51
2023-05-16T19:58:05.761Z,16.50
2023-05-16T20:00:32.967Z,16.48
2023-05-16T20:03:00.676Z,16.46
2023-05-16T20:05:28.181Z,16.44
2023-05-16T20:07:56.135Z,16.42
2023-05-16T20:10:23.260Z,16.41
2023-05-16T20:12:50.351Z,16.39
2023-05-16T20:15:19.019Z,16.35
2023-05-16T20:17:46.369Z,16.35
2023-05-16T20:20:13.913Z,16.31
2023-05-16T20:22:41.948Z,16.31
2023-05-16T20:25:11.742Z,16.30
2023-05-16T20:27:38.763Z,16.28
2023-05-16T20:30:08.012Z,16.26
2023-05-16T20:32:35.528Z,16.25
2023-05-16T20:35:04.876Z,16.23
2023-05-16T20:37:31.787Z,16.22
2023-05-16T20:39:59.244Z,16.20
2023-05-16T20:42:26.134Z,16.19
2023-05-16T20:44:53.011Z,16.18
2023-05-16T20:47:20.042Z,16.16
2023-05-16T20:49:46.908Z,16.15
2023-05-16T20:52:13.996Z,16.13
2023-05-16T20:54:41.895Z,16.11
2023-05-16T20:57:09.152Z,16.09
2023-05-16T20:59:37.576Z,16.08
2023-05-16T21:02:05.856Z,16.06
2023-05-16T21:04:33.026Z,16.06
2023-05-16T21:07:00.327Z,16.06
2023-05-16T21:09:27.289Z,16.04
2023-05-16T21:11:54.266Z,16.03
2023-05-16T21:14:21.165Z,16.01
2023-05-16T21:16:48.304Z,15.99
2023-05-16T21:19:15.426Z,15.98
2023-05-16T21:21:42.420Z,15.97
2023-05-16T21:24:10.021Z,15.97
2023-05-16T21:26:37.071Z,15.96
2023-05-16T21:29:04.141Z,15.94
2023-05-16T21:31:31.219Z,15.92
2023-05-16T21:33:58.097Z,15.92
2023-05-16T21:36:25.474Z,15.91
2023-05-16T21:38:52.529Z,15.89
2023-05-16T21:41:21.833Z,15.87
2023-05-16T21:43:48.783Z,15.87
2023-05-16T21:46:16.010Z,15.87
2023-05-16T21:48:42.977Z,15.86
2023-05-16T21:51:10.957Z,15.85
2023-05-16T21:53:38.501Z,15.85
2023-05-16T21:56:06.106Z,15.84
2023-05-16T21:58:33.197Z,15.82
2023-05-16T22:01:16.626Z,15.79
2023-05-16T22:03:52.798Z,15.77
2023-05-16T22:06:19.952Z,15.76
2023-05-16T22:08:46.954Z,15.74
2023-05-16T22:11:14.052Z,15.73
2023-05-16T22:13:42.163Z,15.72
2023-05-16T22:16:09.926Z,15.71
2023-05-16T22:18:37.154Z,15.72
2023-05-16T22:21:04.385Z,15.72
2023-05-16T22:23:31.314Z,15.70
2023-05-16T22:25:58.615Z,15.71
2023-05-16T22:28:26.393Z,15.71
2023-05-16T22:30:53.444Z,15.70
2023-05-16T22:33:22.802Z,15.68
2023-05-16T22:35:50.050Z,15.67
2023-05-16T22:38:17.112Z,15.68
2023-05-16T22:40:44.604Z,15.67
2023-05-16T22:43:11.713Z,15.67
2023-05-16T22:45:38.697Z,15.65
2023-05-16T22:48:06.306Z,15.65
2023-05-16T22:50:33.399Z,15.64
2023-05-16T22:53:00.363Z,15.63
2023-05-16T22:55:27.760Z,15.60
2023-05-16T22:57:57.323Z,15.59
2023-05-16T23:00:27.202Z,15.57
2023-05-16T23:02:54.342Z,15.55
2023-05-16T23:05:22.098Z,15.53
2023-05-16T23:07:49.106Z,15.52
2023-05-16T23:10:16.039Z,15.51
2023-05-16T23:12:43.019Z,15.52
2023-05-16T23:15:11.881Z,15.52
2023-05-16T23:17:39.641Z,15.51
2023-05-16T23:20:08.205Z,15.51
2023-05-16T23:22:35.344Z,15.49
2023-05-16T23:25:02.414Z,15.48
2023-05-16T23:27:29.365Z,15.46
2023-05-16T23:29:56.362Z,15.43
2023-05-16T23:32:23.562Z,15.39
2023-05-16T23:34:50.553Z,15.37
2023-05-16T23:37:17.399Z,15.35
2023-05-16T23:39:45.152Z,15.32
2023-05-16T23:42:12.330Z,15.31
2023-05-16T23:44:41.842Z,15.29
2023-05-16T23:47:09.478Z,15.27
2023-05-16T23:49:36.413Z,15.25
2023-05-16T23:52:05.994Z,15.23
2023-05-16T23:54:33.278Z,15.21
2023-05-16T23:57:00.304Z,15.18
2023-05-16T23:59:27.424Z,15.12
